createdAt,value
2023-01-31T00:06:40.287Z,1.55
2023-01-31T00:16:44.264Z,2.78
2023-01-31T00:26:48.519Z,1.63
2023-01-31T00:36:52.567Z,2.15
2023-01-31T00:46:55.219Z,1.80
2023-01-31T00:56:59.257Z,2.17
2023-01-31T01:07:02.002Z,2.40
2023-01-31T01:17:06.053Z,2.42
2023-01-31T01:27:08.676Z,2.00
2023-01-31T01:37:20.069Z,1.83
2023-01-31T01:47:36.370Z,2.15
2023-01-31T01:57:42.814Z,2.05
2023-01-31T02:07:45.535Z,2.53
2023-01-31T02:17:49.711Z,1.75
2023-01-31T02:28:34.159Z,1.30
2023-01-31T02:38:52.517Z,2.17
2023-01-31T02:49:00.893Z,2.08
2023-01-31T02:59:09.693Z,2.30
2023-01-31T03:09:22.272Z,1.50
2023-01-31T03:19:32.868Z,1.50
2023-01-31T03:29:38.652Z,1.57
2023-01-31T03:39:47.820Z,1.73
2023-01-31T03:49:52.504Z,1.90
2023-01-31T03:59:59.263Z,2.03
2023-01-31T04:10:02.049Z,1.55
2023-01-31T04:20:07.491Z,1.98
2023-01-31T04:30:11.904Z,1.48
2023-01-31T04:40:15.988Z,1.60
2023-01-31T04:50:18.897Z,2.22
2023-01-31T05:00:23.375Z,1.52
2023-01-31T05:10:26.047Z,2.25
2023-01-31T05:20:31.362Z,1.58
2023-01-31T05:30:34.158Z,2.20
2023-01-31T05:40:38.911Z,2.28
2023-01-31T05:50:41.554Z,2.67
2023-01-31T06:00:45.813Z,2.47
2023-01-31T06:10:48.475Z,2.63
2023-01-31T06:20:52.561Z,2.40
2023-01-31T06:30:55.528Z,2.92
2023-01-31T06:40:59.693Z,2.00
2023-01-31T06:51:02.767Z,2.38
2023-01-31T07:01:08.067Z,3.25
2023-01-31T07:11:10.969Z,3.50
2023-01-31T07:21:15.016Z,3.83
2023-01-31T07:31:17.656Z,4.07
2023-01-31T07:41:21.664Z,4.18
2023-01-31T07:51:24.397Z,4.18
2023-01-31T08:01:49.164Z,3.35
2023-01-31T08:11:53.344Z,4.35
2023-01-31T08:21:57.434Z,3.90
2023-01-31T08:32:00.760Z,4.05
2023-01-31T08:42:05.033Z,3.88
2023-01-31T08:52:07.877Z,3.20
2023-01-31T09:02:12.541Z,2.30
2023-01-31T09:12:15.163Z,3.15
2023-01-31T09:22:20.454Z,2.55
2023-01-31T09:32:23.749Z,2.72
2023-01-31T09:42:32.043Z,3.88
2023-01-31T09:52:35.221Z,2.15
2023-01-31T10:03:09.306Z,2.47
2023-01-31T10:13:18.336Z,1.60
2023-01-31T10:23:28.002Z,2.53
2023-01-31T10:33:39.381Z,2.75
2023-01-31T10:43:50.353Z,3.08
2023-01-31T10:54:08.104Z,2.33
2023-01-31T11:04:28.849Z,2.08
2023-01-31T11:24:41.247Z,1.90
2023-01-31T11:34:56.874Z,2.83
2023-01-31T11:45:03.484Z,2.47
2023-01-31T11:55:09.159Z,2.58
2023-01-31T12:05:16.417Z,2.33
2023-01-31T12:15:19.255Z,2.47
2023-01-31T12:25:44.353Z,2.30
2023-01-31T12:36:05.799Z,1.98
2023-01-31T12:46:18.682Z,1.75
2023-01-31T12:56:56.718Z,1.65
2023-01-31T13:07:04.056Z,2.45
2023-01-31T13:17:11.808Z,3.35
2023-01-31T13:27:20.984Z,2.92
2023-01-31T13:37:25.970Z,4.10
2023-01-31T13:47:33.496Z,3.08
2023-01-31T13:57:45.353Z,3.72
2023-01-31T14:08:33.309Z,2.85
2023-01-31T14:18:41.207Z,1.90
2023-01-31T14:28:45.534Z,2.10
2023-01-31T14:39:11.869Z,1.75
2023-01-31T14:49:44.178Z,1.90
2023-01-31T14:59:57.192Z,1.98
2023-01-31T15:10:01.282Z,1.77
2023-01-31T15:20:14.591Z,1.60
2023-01-31T15:30:22.245Z,1.73
2023-01-31T15:40:28.623Z,1.85
2023-01-31T15:50:34.710Z,2.88
2023-01-31T16:00:39.137Z,1.92
2023-01-31T16:10:45.537Z,1.42
2023-01-31T16:20:49.998Z,1.77
2023-01-31T16:30:54.142Z,1.92
2023-01-31T16:41:00.723Z,2.63
2023-01-31T16:51:41.872Z,2.45
2023-01-31T17:01:44.980Z,2.72
2023-01-31T17:11:49.260Z,2.67
2023-01-31T17:21:51.902Z,2.20
2023-01-31T17:31:55.873Z,2.72
2023-01-31T17:41:58.532Z,2.20
2023-01-31T17:52:02.887Z,1.90
2023-01-31T18:02:10.344Z,2.30
2023-01-31T18:12:14.306Z,2.67
2023-01-31T18:22:17.756Z,2.78
2023-01-31T18:32:21.853Z,2.75
2023-01-31T18:42:24.494Z,2.47
2023-01-31T18:52:29.849Z,2.22
2023-01-31T19:02:32.540Z,2.47
2023-01-31T19:12:39.048Z,3.35
2023-01-31T19:22:41.737Z,2.70
2023-01-31T19:32:45.756Z,2.38
2023-01-31T19:42:48.408Z,2.70
2023-01-31T19:52:52.523Z,2.03
2023-01-31T20:02:55.166Z,2.38
2023-01-31T20:13:02.403Z,2.15
2023-01-31T20:23:05.452Z,2.75
2023-01-31T20:33:09.770Z,2.70
2023-01-31T20:43:12.373Z,2.67
2023-01-31T20:53:20.240Z,2.80
2023-01-31T21:03:24.235Z,3.50
2023-01-31T21:13:30.020Z,3.88
2023-01-31T21:23:32.693Z,2.28
2023-01-31T21:33:37.172Z,3.05
2023-01-31T21:43:41.311Z,2.50
2023-01-31T21:53:46.210Z,2.05
2023-01-31T22:03:50.386Z,4.43
2023-01-31T22:13:56.244Z,2.83
2023-01-31T22:24:00.985Z,2.80
2023-01-31T22:34:06.211Z,3.30
2023-01-31T22:44:08.857Z,3.08
2023-01-31T22:54:14.602Z,1.88
2023-01-31T23:04:19.109Z,2.55
2023-01-31T23:14:23.193Z,2.92
2023-01-31T23:24:25.872Z,3.42
2023-01-31T23:34:29.838Z,2.38
2023-01-31T23:44:32.731Z,2.60
2023-01-31T23:54:37.032Z,3.15
